Alley Springs, Missouri
Current Conditions -  °F | °C
As of 11:53 PM on Friday 19 Dec 2014 (Local Time) from KUNO Reporting Station
Overcast Overcast  
Wind Chill: 30°   Ceiling: 600
Heat Index: 34°   Visibility: 7mi
Dew Point: 31°   Wind: 5mph
Humidity: 89%   Direction: 130°SE
Pressure: 30.23"   Gusts: NA
Location:  37.1833°N, 91.4819°W
Report Text: KUNO 200553Z AUTO 13004KT 7SM OVC006 01/M01 A3023 RMK AO2 SLP246 T00111006 10022 20011 400220011 50002 $
Loading
Personal Weather Stations






























Interactive Weather Map New forecast layout! Learn more

10-Day Weather Forecast

Advertisements
Track Severe Weather on mobile